F/V Renaissance II — FMEW — position and weather

sailwx.info

Track history (hours):
 
Tides and Currents Weather Stations Pressure Air Temp Water Temp Dewpoint Dewpoint Depression Visibility Wind Speed Wind Dir Waves Ship Positions

F/V Renaissance II

Last reported at 2016-Jun-13 12:33 UTC. Time now 2016-Jul-01 13:42 UTC.
Position N 46°30' W 001°47'.
Warning: this ship's position is 18 days out of date.

Length 18 m.

Type: Fishing. MMSI: 228216600.

Date/timePositionNaut miles runAvg speedWind from/ knotsBaromVisibWave heightAir tempDewpointWater temp
2016-Jun-13 12:33N 46°30' W 001°47'0 0.1
2016-Jun-13 09:33N 46°30' W 001°48'0 0.0
2016-Jun-13 08:33N 46°30' W 001°48'0 0.1
2016-Jun-13 07:33N 46°30' W 001°47'0 0.0
2016-Jun-13 06:33N 46°30' W 001°47'0 0.0
2016-Jun-13 05:33N 46°30' W 001°47'0 0.0
2016-Jun-13 04:33N 46°30' W 001°47'0 0.0
2016-Jun-13 03:33N 46°30' W 001°47'0 0.0
2016-Jun-13 02:33N 46°30' W 001°47'0 0.0
2016-Jun-13 01:33N 46°30' W 001°47'0 0.0
2016-Jun-13 00:33N 46°30' W 001°47'0 0.0
2016-Jun-12 23:33N 46°30' W 001°47'0 0.0
2016-Jun-12 22:33N 46°30' W 001°47'0 0.0
2016-Jun-12 21:33N 46°30' W 001°47'0 0.0
2016-Jun-12 20:33N 46°30' W 001°47'0 0.0
2016-Jun-12 19:33N 46°30' W 001°47'0 0.0
2016-Jun-12 18:33N 46°30' W 001°47'0 0.0
2016-Jun-12 17:33N 46°30' W 001°47'0 0.0
2016-Jun-12 16:33N 46°30' W 001°47'0 0.0
2016-Jun-12 15:33N 46°30' W 001°47'0 0.0
2016-Jun-12 14:33N 46°30' W 001°47'0 0.0
2016-Jun-12 13:33N 46°30' W 001°47'0 0.0
2016-Jun-12 12:33N 46°30' W 001°47'0 0.0
2016-Jun-12 11:33N 46°30' W 001°47'0 0.0
2016-Jun-12 10:33N 46°30' W 001°47'0 0.1
2016-Jun-12 09:34N 46°30' W 001°47'0 0.0
2016-Jun-12 08:34N 46°30' W 001°47'0 0.0
2016-Jun-12 07:33N 46°30' W 001°47'0 0.0
2016-Jun-12 06:33N 46°30' W 001°47'0 0.0
2016-Jun-12 04:34N 46°30' W 001°47'0 0.0
2016-Jun-12 03:33N 46°30' W 001°47'0 0.0
2016-Jun-12 02:33N 46°30' W 001°47'0 0.0
2016-Jun-12 01:33N 46°30' W 001°47'0 0.0
2016-Jun-12 00:33N 46°30' W 001°47'0 0.0
2016-Jun-11 23:33N 46°30' W 001°47'0 0.0
2016-Jun-11 22:33N 46°30' W 001°47'0 0.0
2016-Jun-11 21:33N 46°30' W 001°47'0 0.0
2016-Jun-11 20:33N 46°30' W 001°47'0 0.0
2016-Jun-11 19:34N 46°30' W 001°47'0 0.0
2016-Jun-11 19:00N 46°30' W 001°47'0 0.0
2016-Jun-11 18:33N 46°30' W 001°47'0 0.0
2016-Jun-11 17:33N 46°30' W 001°47'0 0.0
2016-Jun-11 16:33N 46°30' W 001°47'0 0.0
2016-Jun-11 15:33N 46°30' W 001°47'0 0.0
2016-Jun-11 14:33N 46°30' W 001°47'0 0.0
2016-Jun-11 13:33N 46°30' W 001°47'0 0.0
2016-Jun-11 12:33N 46°30' W 001°47'0 0.0
2016-Jun-11 11:33N 46°30' W 001°47'0 0.1
2016-Jun-11 10:33N 46°30' W 001°47'0 0.0
2016-Jun-11 09:33N 46°30' W 001°47'0 0.0
2016-Jun-11 08:34N 46°30' W 001°47'0 0.0
2016-Jun-11 07:34N 46°30' W 001°47'0 0.1
2016-Jun-11 06:33N 46°30' W 001°47'0 0.0
2016-Jun-11 05:33N 46°30' W 001°47'0 0.0
2016-Jun-11 04:34N 46°30' W 001°47'0 0.0
2016-Jun-11 03:33N 46°30' W 001°47'0 0.0
2016-Jun-11 02:33N 46°30' W 001°47'0 0.0
2016-Jun-11 01:33N 46°30' W 001°47'0 0.0
2016-Jun-11 00:33N 46°30' W 001°47'0 0.0
2016-Jun-10 23:33N 46°30' W 001°47'0 0.0
2016-Jun-10 22:33N 46°30' W 001°47'0 0.0
2016-Jun-10 21:33N 46°30' W 001°47'0 0.0
2016-Jun-10 20:33N 46°30' W 001°47'0 0.0
2016-Jun-10 19:33N 46°30' W 001°47'0 0.1
2016-Jun-10 18:33N 46°30' W 001°47'9 8.7
2016-Jun-10 17:33N 46°23' W 001°56'18 1.2
2016-Jun-10 02:33N 46°06' W 002°06'12 6.2
2016-Jun-10 00:33N 46°17' W 001°57'7 6.7
2016-Jun-09 23:33N 46°23' W 001°52'6 6.5
2016-Jun-09 22:34N 46°28' W 001°48'2 1.6
2016-Jun-09 21:33N 46°30' W 001°47'7 7.1
2016-Jun-09 20:33N 46°23' W 001°51'19 1.0
2016-Jun-09 01:31N 46°08' W 002°06'7 5.8
2016-Jun-09 00:20N 46°14' W 002°01'5 6.3
2016-Jun-08 23:33N 46°18' W 001°57'7 6.5
2016-Jun-08 22:33N 46°23' W 001°52'6 6.3
2016-Jun-08 21:33N 46°29' W 001°47'1 1.3
2016-Jun-08 20:33N 46°30' W 001°47'0 0.0
2016-Jun-08 19:33N 46°30' W 001°47'0 0.0
2016-Jun-08 18:34N 46°30' W 001°47'0 0.0
2016-Jun-08 17:33N 46°30' W 001°47'0 0.0
2016-Jun-08 16:33N 46°30' W 001°47'0 0.0
2016-Jun-08 15:33N 46°30' W 001°47'0 0.0
2016-Jun-08 14:33N 46°30' W 001°47'1 1.0
2016-Jun-08 13:33N 46°29' W 001°47'9 8.8
2016-Jun-08 12:33N 46°21' W 001°53'28 2.5
2016-Jun-08 01:04N 45°58' W 002°17'0 0.2
2016-Jun-08 00:33N 45°58' W 002°17'0 0.4
2016-Jun-07 23:33N 45°59' W 002°17'1 0.7
2016-Jun-07 22:33N 45°59' W 002°16'0 0.3
2016-Jun-07 21:33N 45°60' W 002°16'1 0.5
2016-Jun-07 20:26N 45°59' W 002°16'1 1.2
2016-Jun-07 19:22N 45°59' W 002°14'4 1.3
2016-Jun-07 16:30N 46°00' W 002°09'3 0.2
2016-Jun-07 01:33N 46°00' W 002°13'5 5.3
2016-Jun-07 00:32N 46°05' W 002°09'6 5.4
2016-Jun-06 23:25N 46°10' W 002°04'5 5.9
2016-Jun-06 22:33N 46°14' W 002°00'6 6.3
2016-Jun-06 21:33N 46°20' W 001°56'6 6.5
2016-Jun-06 20:33N 46°25' W 001°51'5 5.3
2016-Jun-06 19:33N 46°30' W 001°47'1 0.9
2016-Jun-06 18:34N 46°29' W 001°47'9 9.2
2016-Jun-06 17:33N 46°21' W 001°53'9 9.4
2016-Jun-06 16:34N 46°13' W 001°60'3 0.1
2016-Jun-05 03:17N 46°16' W 001°58'7 8.9
2016-Jun-05 02:33N 46°21' W 001°54'9 8.7
2016-Jun-05 01:33N 46°29' W 001°47'1 1.1
2016-Jun-05 00:33N 46°30' W 001°47'4 4.2
2016-Jun-04 23:33N 46°26' W 001°49'5 5.5
2016-Jun-04 22:33N 46°21' W 001°53'3 0.1
2016-Jun-04 00:33N 46°18' W 001°55'6 6.4
2016-Jun-03 23:34N 46°24' W 001°51'6 6.0
2016-Jun-03 22:33N 46°30' W 001°48'7 6.9
2016-Jun-03 21:33N 46°23' W 001°51'  
Track history (hours):
 
Tides and Currents Weather Stations Pressure Air Temp Water Temp Dewpoint Dewpoint Depression Visibility Wind Speed Wind Dir Waves Ship Positions

F/V Renaissance II

Last reported at 2016-Jun-13 12:33 UTC. Time now 2016-Jul-01 13:42 UTC.
Position N 46°30' W 001°47'.
Warning: this ship's position is 18 days out of date.

Length 18 m.

Type: Fishing. MMSI: 228216600.

Date/timePositionNaut miles runAvg speedWind from/ knotsBaromVisibWave heightAir tempDewpointWater temp
2016-Jun-13 12:33N 46°30' W 001°47'0 0.1
2016-Jun-13 09:33N 46°30' W 001°48'0 0.0
2016-Jun-13 08:33N 46°30' W 001°48'0 0.1
2016-Jun-13 07:33N 46°30' W 001°47'0 0.0
2016-Jun-13 06:33N 46°30' W 001°47'0 0.0
2016-Jun-13 05:33N 46°30' W 001°47'0 0.0
2016-Jun-13 04:33N 46°30' W 001°47'0 0.0
2016-Jun-13 03:33N 46°30' W 001°47'0 0.0
2016-Jun-13 02:33N 46°30' W 001°47'0 0.0
2016-Jun-13 01:33N 46°30' W 001°47'0 0.0
2016-Jun-13 00:33N 46°30' W 001°47'0 0.0
2016-Jun-12 23:33N 46°30' W 001°47'0 0.0
2016-Jun-12 22:33N 46°30' W 001°47'0 0.0
2016-Jun-12 21:33N 46°30' W 001°47'0 0.0
2016-Jun-12 20:33N 46°30' W 001°47'0 0.0
2016-Jun-12 19:33N 46°30' W 001°47'0 0.0
2016-Jun-12 18:33N 46°30' W 001°47'0 0.0
2016-Jun-12 17:33N 46°30' W 001°47'0 0.0
2016-Jun-12 16:33N 46°30' W 001°47'0 0.0
2016-Jun-12 15:33N 46°30' W 001°47'0 0.0
2016-Jun-12 14:33N 46°30' W 001°47'0 0.0
2016-Jun-12 13:33N 46°30' W 001°47'0 0.0
2016-Jun-12 12:33N 46°30' W 001°47'0 0.0
2016-Jun-12 11:33N 46°30' W 001°47'0 0.0
2016-Jun-12 10:33N 46°30' W 001°47'0 0.1
2016-Jun-12 09:34N 46°30' W 001°47'0 0.0
2016-Jun-12 08:34N 46°30' W 001°47'0 0.0
2016-Jun-12 07:33N 46°30' W 001°47'0 0.0
2016-Jun-12 06:33N 46°30' W 001°47'0 0.0
2016-Jun-12 04:34N 46°30' W 001°47'0 0.0
2016-Jun-12 03:33N 46°30' W 001°47'0 0.0
2016-Jun-12 02:33N 46°30' W 001°47'0 0.0
2016-Jun-12 01:33N 46°30' W 001°47'0 0.0
2016-Jun-12 00:33N 46°30' W 001°47'0 0.0
2016-Jun-11 23:33N 46°30' W 001°47'0 0.0
2016-Jun-11 22:33N 46°30' W 001°47'0 0.0
2016-Jun-11 21:33N 46°30' W 001°47'0 0.0
2016-Jun-11 20:33N 46°30' W 001°47'0 0.0
2016-Jun-11 19:34N 46°30' W 001°47'0 0.0
2016-Jun-11 19:00N 46°30' W 001°47'0 0.0
2016-Jun-11 18:33N 46°30' W 001°47'0 0.0
2016-Jun-11 17:33N 46°30' W 001°47'0 0.0
2016-Jun-11 16:33N 46°30' W 001°47'0 0.0
2016-Jun-11 15:33N 46°30' W 001°47'0 0.0
2016-Jun-11 14:33N 46°30' W 001°47'0 0.0
2016-Jun-11 13:33N 46°30' W 001°47'0 0.0
2016-Jun-11 12:33N 46°30' W 001°47'0 0.0
2016-Jun-11 11:33N 46°30' W 001°47'0 0.1
2016-Jun-11 10:33N 46°30' W 001°47'0 0.0
2016-Jun-11 09:33N 46°30' W 001°47'0 0.0
2016-Jun-11 08:34N 46°30' W 001°47'0 0.0
2016-Jun-11 07:34N 46°30' W 001°47'0 0.1
2016-Jun-11 06:33N 46°30' W 001°47'0 0.0
2016-Jun-11 05:33N 46°30' W 001°47'0 0.0
2016-Jun-11 04:34N 46°30' W 001°47'0 0.0
2016-Jun-11 03:33N 46°30' W 001°47'0 0.0
2016-Jun-11 02:33N 46°30' W 001°47'0 0.0
2016-Jun-11 01:33N 46°30' W 001°47'0 0.0
2016-Jun-11 00:33N 46°30' W 001°47'0 0.0
2016-Jun-10 23:33N 46°30' W 001°47'0 0.0
2016-Jun-10 22:33N 46°30' W 001°47'0 0.0
2016-Jun-10 21:33N 46°30' W 001°47'0 0.0
2016-Jun-10 20:33N 46°30' W 001°47'0 0.0
2016-Jun-10 19:33N 46°30' W 001°47'0 0.1
2016-Jun-10 18:33N 46°30' W 001°47'9 8.7
2016-Jun-10 17:33N 46°23' W 001°56'18 1.2
2016-Jun-10 02:33N 46°06' W 002°06'12 6.2
2016-Jun-10 00:33N 46°17' W 001°57'7 6.7
2016-Jun-09 23:33N 46°23' W 001°52'6 6.5
2016-Jun-09 22:34N 46°28' W 001°48'2 1.6
2016-Jun-09 21:33N 46°30' W 001°47'7 7.1
2016-Jun-09 20:33N 46°23' W 001°51'19 1.0
2016-Jun-09 01:31N 46°08' W 002°06'7 5.8
2016-Jun-09 00:20N 46°14' W 002°01'5 6.3
2016-Jun-08 23:33N 46°18' W 001°57'7 6.5
2016-Jun-08 22:33N 46°23' W 001°52'6 6.3
2016-Jun-08 21:33N 46°29' W 001°47'1 1.3
2016-Jun-08 20:33N 46°30' W 001°47'0 0.0
2016-Jun-08 19:33N 46°30' W 001°47'0 0.0
2016-Jun-08 18:34N 46°30' W 001°47'0 0.0
2016-Jun-08 17:33N 46°30' W 001°47'0 0.0
2016-Jun-08 16:33N 46°30' W 001°47'0 0.0
2016-Jun-08 15:33N 46°30' W 001°47'0 0.0
2016-Jun-08 14:33N 46°30' W 001°47'1 1.0
2016-Jun-08 13:33N 46°29' W 001°47'9 8.8
2016-Jun-08 12:33N 46°21' W 001°53'28 2.5
2016-Jun-08 01:04N 45°58' W 002°17'0 0.2
2016-Jun-08 00:33N 45°58' W 002°17'0 0.4
2016-Jun-07 23:33N 45°59' W 002°17'1 0.7
2016-Jun-07 22:33N 45°59' W 002°16'0 0.3
2016-Jun-07 21:33N 45°60' W 002°16'1 0.5
2016-Jun-07 20:26N 45°59' W 002°16'1 1.2
2016-Jun-07 19:22N 45°59' W 002°14'4 1.3
2016-Jun-07 16:30N 46°00' W 002°09'3 0.2
2016-Jun-07 01:33N 46°00' W 002°13'5 5.3
2016-Jun-07 00:32N 46°05' W 002°09'6 5.4
2016-Jun-06 23:25N 46°10' W 002°04'5 5.9
2016-Jun-06 22:33N 46°14' W 002°00'6 6.3
2016-Jun-06 21:33N 46°20' W 001°56'6 6.5
2016-Jun-06 20:33N 46°25' W 001°51'5 5.3
2016-Jun-06 19:33N 46°30' W 001°47'1 0.9
2016-Jun-06 18:34N 46°29' W 001°47'9 9.2
2016-Jun-06 17:33N 46°21' W 001°53'9 9.4
2016-Jun-06 16:34N 46°13' W 001°60'3 0.1
2016-Jun-05 03:17N 46°16' W 001°58'7 8.9
2016-Jun-05 02:33N 46°21' W 001°54'9 8.7
2016-Jun-05 01:33N 46°29' W 001°47'1 1.1
2016-Jun-05 00:33N 46°30' W 001°47'4 4.2
2016-Jun-04 23:33N 46°26' W 001°49'5 5.5
2016-Jun-04 22:33N 46°21' W 001°53'3 0.1
2016-Jun-04 00:33N 46°18' W 001°55'6 6.4
2016-Jun-03 23:34N 46°24' W 001°51'6 6.0
2016-Jun-03 22:33N 46°30' W 001°48'7 6.9
2016-Jun-03 21:33N 46°23' W 001°51'  

Dump ship's entire track history